Time;durP1;ratioP1;P1;durP2;ratioP2;P2;SDS_P1;SDS_P2;PMS_P1;PMS_P2;Temp;Humidity;BMP_temperature;BMP_pressure;BME280_temperature;BME280_humidity;BME280_pressure;Samples;Min_cycle;Max_cycle;Signal;HPM_P1;HPM_P2
2022/05/16 00:00:10;;;;;;;6.85;3.30;;;;;;;15.93;56.83;101218.53;5018953;28;20038;-94
2022/05/16 00:02:35;;;;;;;14.35;3.42;;;;;;;15.90;57.00;101220.72;5002239;28;20034;-92
2022/05/16 00:05:01;;;;;;;12.70;3.60;;;;;;;15.92;56.78;101216.91;5019048;28;20054;-93
2022/05/16 00:07:26;;;;;;;6.75;3.35;;;;;;;15.90;56.92;101203.72;5017936;28;20053;-94
2022/05/16 00:09:51;;;;;;;9.43;3.27;;;;;;;15.87;56.70;101199.69;5018699;28;20019;-94
2022/05/16 00:12:17;;;;;;;10.30;3.70;;;;;;;15.83;56.86;101206.72;5018045;28;20010;-95
2022/05/16 00:14:44;;;;;;;9.47;3.40;;;;;;;15.83;56.98;101204.00;5001122;28;20089;-94
2022/05/16 00:17:10;;;;;;;10.90;4.07;;;;;;;15.75;57.55;101204.59;5017917;28;20030;-94
2022/05/16 00:19:35;;;;;;;13.77;3.63;;;;;;;15.74;57.46;101200.28;5016133;28;20034;-93
2022/05/16 00:22:01;;;;;;;6.97;3.40;;;;;;;15.74;57.66;101201.13;5016091;28;20425;-94
2022/05/16 00:24:28;;;;;;;10.63;3.30;;;;;;;15.71;57.97;101195.44;5014004;28;20023;-94
2022/05/16 00:26:54;;;;;;;10.45;3.80;;;;;;;15.69;57.74;101198.44;5000885;28;20105;-94
2022/05/16 00:29:20;;;;;;;13.77;3.30;;;;;;;15.74;57.86;101193.00;4996134;28;20087;-94
2022/05/16 00:31:45;;;;;;;10.23;3.20;;;;;;;15.69;58.33;101187.66;4998350;28;20031;-94
2022/05/16 00:34:10;;;;;;;12.37;3.47;;;;;;;15.67;58.62;101181.72;5016347;28;20137;-94
2022/05/16 00:36:35;;;;;;;9.87;3.53;;;;;;;15.59;58.76;101180.44;5013870;28;20022;-94
2022/05/16 00:39:01;;;;;;;8.63;3.50;;;;;;;15.57;58.28;101185.31;5014222;28;20061;-95
2022/05/16 00:41:27;;;;;;;11.63;3.88;;;;;;;15.57;58.83;101184.50;5015417;28;20026;-94
2022/05/16 00:43:57;;;;;;;13.33;3.70;;;;;;;15.57;58.61;101189.91;5018871;28;20006;-93
2022/05/16 00:46:26;;;;;;;9.75;3.80;;;;;;;15.54;59.00;101177.78;5015466;28;20091;-93
2022/05/16 00:48:51;;;;;;;12.07;3.67;;;;;;;15.52;59.00;101184.56;5017437;28;20030;-93
2022/05/16 00:51:24;;;;;;;10.17;3.77;;;;;;;15.41;58.71;101171.13;5000726;28;20041;-94
2022/05/16 00:53:53;;;;;;;10.15;3.83;;;;;;;15.43;58.97;101178.94;5018254;28;20027;-93
2022/05/16 00:56:19;;;;;;;11.68;3.70;;;;;;;15.45;59.45;101176.78;5016261;28;20037;-94
2022/05/16 00:58:46;;;;;;;9.63;3.70;;;;;;;15.39;59.29;101178.72;5016839;28;20062;-94
2022/05/16 01:06:41;;;;;;;13.98;3.65;;;;;;;15.26;59.80;101157.72;5016976;28;20065;-94
2022/05/16 01:09:07;;;;;;;13.23;3.60;;;;;;;15.26;59.75;101163.94;5016074;28;20026;-95
2022/05/16 01:11:34;;;;;;;10.25;4.00;;;;;;;15.23;60.35;101167.22;5015382;28;20041;-93
2022/05/16 01:14:00;;;;;;;12.55;3.85;;;;;;;15.22;60.68;101167.50;5014236;28;20058;-94
2022/05/16 01:16:25;;;;;;;9.93;3.40;;;;;;;15.22;60.79;101167.50;5011520;28;20027;-94
2022/05/16 01:18:50;;;;;;;12.30;3.60;;;;;;;15.15;60.98;101162.44;5013538;28;20026;-93
2022/05/16 01:21:39;;;;;;;12.37;3.80;;;;;;;15.14;59.39;101168.91;5011530;28;20035;-94
2022/05/16 01:24:16;;;;;;;12.73;4.03;;;;;;;15.08;60.92;101159.22;5012328;28;20018;-94
2022/05/16 01:26:42;;;;;;;10.10;3.47;;;;;;;15.12;60.86;101177.28;5004419;28;20031;-94
2022/05/16 01:29:09;;;;;;;9.60;3.70;;;;;;;15.06;61.37;101167.59;5012744;28;20280;-94
2022/05/16 01:31:34;;;;;;;11.60;3.85;;;;;;;15.04;61.54;101171.66;5013585;28;20030;-94
2022/05/16 01:34:01;;;;;;;13.88;3.92;;;;;;;15.02;61.80;101174.66;5013021;28;20041;-93
2022/05/16 01:36:26;;;;;;;12.57;4.00;;;;;;;14.94;61.30;101162.56;5014249;28;20032;-93
2022/05/16 01:38:52;;;;;;;11.77;3.53;;;;;;;14.94;61.70;101159.84;5014169;28;20074;-94
2022/05/16 01:41:22;;;;;;;12.38;3.55;;;;;;;14.82;61.76;101152.09;5014417;28;20057;-94
2022/05/16 01:43:55;;;;;;;12.18;4.18;;;;;;;14.80;62.36;101161.53;5003363;28;20113;-94
2022/05/16 01:46:24;;;;;;;9.13;4.00;;;;;;;14.78;62.76;101163.72;4995140;28;20026;-94
2022/05/16 01:48:50;;;;;;;13.20;3.65;;;;;;;14.78;62.78;101164.50;5012234;28;20034;-94
2022/05/16 01:51:15;;;;;;;7.18;3.30;;;;;;;14.73;62.82;101152.94;5015693;28;20030;-94
2022/05/16 01:53:43;;;;;;;12.47;4.10;;;;;;;14.74;63.14;101157.25;5016592;28;20042;-94
2022/05/16 01:56:09;;;;;;;13.00;3.97;;;;;;;14.66;63.58;101153.22;5015701;28;20050;-93
2022/05/16 01:58:34;;;;;;;14.20;4.73;;;;;;;14.68;63.45;101159.97;5000759;28;20034;-94
2022/05/16 02:01:00;;;;;;;11.88;4.28;;;;;;;14.62;63.15;101142.16;4992857;28;20031;-94
2022/05/16 02:03:26;;;;;;;14.18;4.35;;;;;;;14.64;63.41;101142.69;4990742;28;20038;-92
2022/05/16 02:05:51;;;;;;;11.03;4.67;;;;;;;14.62;64.36;101134.06;4998621;28;20094;-94
2022/05/16 02:08:17;;;;;;;10.47;3.87;;;;;;;14.57;64.39;101144.91;5007790;28;20018;-94
2022/05/16 02:10:44;;;;;;;13.43;4.40;;;;;;;14.59;64.21;101140.06;5009043;28;20022;-95
2022/05/16 02:13:10;;;;;;;9.10;4.03;;;;;;;14.59;64.66;101136.53;5011478;28;20117;-93
2022/05/16 02:15:38;;;;;;;11.55;3.90;;;;;;;14.61;64.27;101128.97;5011284;28;20033;-94
2022/05/16 02:18:04;;;;;;;12.82;4.03;;;;;;;14.63;64.18;101129.50;5013789;28;20040;-92
2022/05/16 02:20:30;;;;;;;12.00;4.10;;;;;;;14.58;64.22;101133.03;4997481;28;20054;-93
2022/05/16 02:25:43;;;;;;;7.97;3.72;;;;;;;14.50;64.69;101120.94;5014596;28;20124;-92
2022/05/16 02:28:11;;;;;;;11.45;3.80;;;;;;;14.49;65.25;101126.59;5010133;28;20034;-93
2022/05/16 02:30:37;;;;;;;14.65;4.32;;;;;;;14.46;65.04;101135.22;5016512;28;20077;-92
2022/05/16 02:33:03;;;;;;;13.10;4.18;;;;;;;14.41;65.27;101125.28;5011760;28;20034;-94
2022/05/16 02:35:32;;;;;;;9.33;3.77;;;;;;;14.32;64.90;101108.88;5010919;28;20039;-93
2022/05/16 02:37:58;;;;;;;10.90;3.83;;;;;;;14.34;66.02;101125.59;5011926;28;20130;-93
2022/05/16 02:40:25;;;;;;;9.45;3.22;;;;;;;14.37;65.00;101119.66;5013487;28;20034;-93
2022/05/16 02:42:51;;;;;;;9.95;3.67;;;;;;;14.29;65.30;101105.94;5011409;28;20022;-93
2022/05/16 02:45:16;;;;;;;11.43;3.80;;;;;;;14.31;65.77;101112.66;5011139;28;20037;-94
2022/05/16 02:47:42;;;;;;;13.20;3.87;;;;;;;14.25;66.11;101108.34;5012317;28;20031;-93
2022/05/16 02:50:07;;;;;;;13.17;4.30;;;;;;;14.23;66.18;101111.34;4992703;28;20030;-93
2022/05/16 02:52:33;;;;;;;12.45;3.92;;;;;;;14.19;66.66;101101.41;4988314;28;20465;-93
2022/05/16 02:55:00;;;;;;;9.80;3.50;;;;;;;14.21;66.12;101097.34;4989306;28;20050;-93
2022/05/16 02:57:26;;;;;;;12.48;4.25;;;;;;;14.14;66.26;101082.53;4991391;28;20033;-94
2022/05/16 02:59:51;;;;;;;10.00;4.18;;;;;;;14.18;66.51;101089.78;4989902;28;20062;-94
2022/05/16 03:02:17;;;;;;;8.87;4.40;;;;;;;14.16;67.24;101080.38;4986267;28;20061;-93
2022/05/16 03:04:43;;;;;;;9.47;3.70;;;;;;;14.15;67.32;101086.84;4991906;28;20031;-94
2022/05/16 03:07:08;;;;;;;11.05;3.80;;;;;;;14.18;66.89;101081.72;4999219;28;20420;-94
2022/05/16 03:09:33;;;;;;;9.73;3.90;;;;;;;14.16;66.79;101077.69;5009599;28;20493;-93
2022/05/16 03:11:59;;;;;;;9.53;4.50;;;;;;;14.16;67.77;101078.47;5011081;28;20164;-93
2022/05/16 03:14:26;;;;;;;10.00;4.25;;;;;;;14.20;67.29;101081.44;5013474;28;20033;-93
2022/05/16 03:16:51;;;;;;;9.68;4.80;;;;;;;14.20;67.17;101078.75;5014946;28;20046;-94
2022/05/16 03:19:17;;;;;;;13.03;4.80;;;;;;;14.21;67.39;101081.16;4998225;28;20027;-94
2022/05/16 03:21:42;;;;;;;8.63;4.07;;;;;;;14.18;67.44;101068.22;4988635;28;20030;-94
2022/05/16 03:24:08;;;;;;;14.57;5.00;;;;;;;14.23;67.47;101087.09;4985667;28;20019;-95
2022/05/16 03:26:34;;;;;;;7.05;4.47;;;;;;;14.23;67.53;101086.28;4997089;28;20073;-94
2022/05/16 03:29:00;;;;;;;11.57;5.00;;;;;;;14.18;67.77;101079.00;5006115;28;20027;-94
2022/05/16 03:31:25;;;;;;;10.40;4.57;;;;;;;14.18;67.92;101083.63;5008561;28;20297;-93
2022/05/16 03:33:51;;;;;;;10.20;4.40;;;;;;;14.17;67.94;101084.69;5007211;28;20022;-93
2022/05/16 03:36:16;;;;;;;8.63;4.22;;;;;;;14.15;67.39;101092.25;5007689;28;20429;-94
2022/05/16 03:41:25;;;;;;;11.27;4.22;;;;;;;14.13;68.07;101083.63;5006210;28;20141;-93
2022/05/16 03:43:51;;;;;;;7.03;3.93;;;;;;;14.13;67.43;101079.06;5009531;28;20034;-94
2022/05/16 03:46:17;;;;;;;9.13;4.27;;;;;;;14.11;68.33;101085.78;5007671;28;20030;-95
2022/05/16 03:48:42;;;;;;;8.38;4.35;;;;;;;14.13;67.98;101091.72;5007633;28;20030;-94
2022/05/16 03:51:09;;;;;;;12.23;4.30;;;;;;;14.11;68.14;101083.09;5009524;28;20030;-93
2022/05/16 03:53:47;;;;;;;12.43;4.50;;;;;;;14.08;67.91;101077.16;5009664;28;20797;-95
2022/05/16 03:56:18;;;;;;;6.72;4.20;;;;;;;14.11;68.25;101085.78;4992540;28;20030;-94
2022/05/16 03:58:43;;;;;;;8.73;4.90;;;;;;;14.09;68.78;101084.16;4992060;28;20034;-94
2022/05/16 04:01:09;;;;;;;11.57;4.50;;;;;;;14.10;69.07;101079.59;4992748;28;20109;-94
2022/05/16 04:03:35;;;;;;;12.20;4.72;;;;;;;14.11;69.03;101086.59;4992810;28;20022;-94
2022/05/16 04:06:00;;;;;;;12.30;3.92;;;;;;;14.13;68.06;101079.06;5004982;28;20097;-94
2022/05/16 04:08:26;;;;;;;12.57;4.50;;;;;;;14.16;68.13;101078.47;5009923;28;20022;-88
2022/05/16 04:10:52;;;;;;;10.25;4.25;;;;;;;14.17;67.98;101084.69;4998150;28;20030;-93
2022/05/16 04:13:17;;;;;;;11.47;4.23;;;;;;;14.16;68.58;101078.47;4989433;28;20033;-91
2022/05/16 04:15:43;;;;;;;8.30;4.47;;;;;;;14.17;68.42;101071.22;4989715;28;20045;-91
2022/05/16 04:18:09;;;;;;;14.55;4.57;;;;;;;14.24;68.38;101085.22;4988996;28;20042;-92
2022/05/16 04:20:34;;;;;;;12.17;4.73;;;;;;;14.28;68.20;101086.25;4990843;28;20081;-93
2022/05/16 04:23:00;;;;;;;6.87;3.60;;;;;;;14.38;67.88;101088.91;4980946;28;20038;-93
2022/05/16 04:25:26;;;;;;;8.30;4.50;;;;;;;14.48;67.88;101084.53;4995923;28;20049;-92
2022/05/16 04:27:51;;;;;;;8.90;3.90;;;;;;;14.57;67.59;101090.97;5010907;28;20027;-94
2022/05/16 04:30:16;;;;;;;8.43;4.20;;;;;;;14.61;67.77;101097.41;4990506;28;20308;-93
2022/05/16 04:32:42;;;;;;;10.43;4.20;;;;;;;14.63;67.89;101092.53;4994836;28;20038;-93
2022/05/16 04:35:07;;;;;;;8.63;4.33;;;;;;;14.64;67.52;101093.38;4996410;28;20041;-93
2022/05/16 04:37:34;;;;;;;10.02;4.50;;;;;;;14.68;67.24;101089.06;4979282;28;20441;-93
2022/05/16 04:40:00;;;;;;;11.13;4.22;;;;;;;14.73;67.34;101097.09;4994805;28;20026;-93
2022/05/16 04:42:41;;;;;;;9.37;4.10;;;;;;;14.79;67.09;101093.31;4991902;28;20142;-94
2022/05/16 04:45:25;;;;;;;7.72;3.75;;;;;;;14.86;66.17;101092.97;4978272;28;20038;-89
2022/05/16 04:47:56;;;;;;;7.70;4.25;;;;;;;14.88;67.32;101098.91;4985662;28;20508;-94
2022/05/16 04:50:27;;;;;;;12.38;4.38;;;;;;;14.95;66.58;101094.00;4992976;28;20038;-89
2022/05/16 04:52:52;;;;;;;10.93;4.47;;;;;;;15.14;66.80;101104.13;4993455;28;20510;-90
2022/05/16 04:55:18;;;;;;;13.20;4.53;;;;;;;15.87;65.40;101107.81;4993349;28;20037;-88
2022/05/16 04:57:43;;;;;;;9.50;4.00;;;;;;;16.79;61.11;101099.63;4992204;28;20034;-89
2022/05/16 05:00:11;;;;;;;11.37;4.50;;;;;;;17.64;59.19;101112.34;4991143;28;20026;-88
2022/05/16 05:02:37;;;;;;;8.82;4.18;;;;;;;18.32;56.61;101103.75;4993354;28;20037;-89
2022/05/16 05:05:03;;;;;;;5.53;3.60;;;;;;;18.77;55.39;101109.28;4991546;28;20030;-88
2022/05/16 05:07:29;;;;;;;9.23;4.23;;;;;;;18.89;54.18;101108.72;4991842;28;20654;-91
2022/05/16 05:15:22;;;;;;;15.60;3.88;;;;;;;18.46;55.88;101104.53;4991688;28;20041;-88
2022/05/16 05:17:47;;;;;;;10.70;3.80;;;;;;;18.43;54.91;101101.63;4990397;28;20406;-89
2022/05/16 05:20:13;;;;;;;10.13;4.27;;;;;;;18.48;55.82;101095.28;4985570;28;20399;-92
2022/05/16 05:22:40;;;;;;;10.55;3.90;;;;;;;19.11;54.57;101098.22;4993555;28;20482;-93
2022/05/16 05:25:09;;;;;;;7.63;3.55;;;;;;;19.09;54.36;101114.81;4993828;28;20105;-92
2022/05/16 05:27:34;;;;;;;9.55;3.55;;;;;;;18.72;55.01;101117.53;4991623;28;20048;-92
2022/05/16 05:29:59;;;;;;;10.30;4.00;;;;;;;18.45;55.75;101112.97;4995355;28;20489;-92
2022/05/16 05:32:29;;;;;;;9.80;3.93;;;;;;;18.26;56.83;101121.25;4993180;28;20030;-92
2022/05/16 05:34:54;;;;;;;9.90;4.13;;;;;;;18.19;57.40;101121.66;5001951;28;20030;-92
2022/05/16 05:37:19;;;;;;;8.27;3.70;;;;;;;18.19;57.27;101116.22;4994429;28;20058;-92
2022/05/16 05:39:45;;;;;;;9.33;3.87;;;;;;;18.19;57.27;101118.94;4991942;28;20041;-92
2022/05/16 05:42:10;;;;;;;9.90;4.17;;;;;;;18.25;56.98;101106.91;4979273;28;20023;-92
2022/05/16 05:44:36;;;;;;;8.43;4.18;;;;;;;18.34;57.26;101104.28;4982923;28;20084;-91
2022/05/16 05:47:01;;;;;;;7.40;4.00;;;;;;;18.50;57.44;101110.16;4992080;28;20034;-90
2022/05/16 05:49:26;;;;;;;12.00;4.30;;;;;;;18.69;57.40;101122.78;4975918;28;20061;-91
2022/05/16 05:51:52;;;;;;;10.07;4.30;;;;;;;18.72;57.08;101125.66;4989649;28;20732;-91
2022/05/16 05:54:17;;;;;;;5.00;3.70;;;;;;;18.71;56.78;101123.28;4992531;28;20023;-91
2022/05/16 05:56:42;;;;;;;8.43;4.23;;;;;;;18.63;56.63;101130.22;4989523;28;20027;-91
2022/05/16 05:59:07;;;;;;;10.53;4.27;;;;;;;18.41;57.86;101133.69;4990417;28;20034;-89
2022/05/16 06:01:34;;;;;;;10.93;4.77;;;;;;;18.27;57.51;101131.00;4991309;28;20035;-90
2022/05/16 06:03:59;;;;;;;13.02;4.70;;;;;;;18.17;57.76;101137.41;4991887;28;20029;-89
2022/05/16 06:06:25;;;;;;;9.23;4.73;;;;;;;18.13;58.23;101144.53;4990147;28;20458;-89
2022/05/16 06:08:51;;;;;;;9.10;4.38;;;;;;;18.08;58.69;101131.06;4974550;28;20426;-90
2022/05/16 06:11:17;;;;;;;11.13;4.80;;;;;;;17.99;59.12;101144.53;4989347;28;20109;-92
2022/05/16 06:13:43;;;;;;;7.82;4.32;;;;;;;17.99;59.25;101139.09;4989326;28;20022;-89
2022/05/16 06:16:08;;;;;;;15.00;5.20;;;;;;;18.05;59.26;101137.13;4991650;28;20074;-89
2022/05/16 06:18:35;;;;;;;21.97;5.17;;;;;;;18.16;59.86;101144.75;4989778;28;20432;-90
2022/05/16 06:21:01;;;;;;;10.50;4.55;;;;;;;18.19;59.24;101137.94;4992567;28;20109;-87
2022/05/16 06:23:27;;;;;;;7.70;4.40;;;;;;;18.40;58.16;101154.56;4989400;28;20135;-87
2022/05/16 06:25:53;;;;;;;11.30;4.63;;;;;;;18.47;58.24;101154.16;4989342;28;20030;-90
2022/05/16 06:28:26;;;;;;;13.02;4.60;;;;;;;18.62;58.57;101153.84;4958040;28;20034;-89
2022/05/16 06:30:58;;;;;;;7.68;4.40;;;;;;;18.74;59.12;101156.03;4971135;28;20481;-87
2022/05/16 06:33:28;;;;;;;13.93;4.47;;;;;;;18.95;58.03;101162.97;4990318;28;20125;-86
2022/05/16 06:35:54;;;;;;;14.65;4.50;;;;;;;19.07;57.38;101163.22;4994562;28;20029;-89
2022/05/16 06:38:28;;;;;;;12.60;4.27;;;;;;;19.16;56.83;101180.38;4992802;28;20030;-91
2022/05/16 06:40:55;;;;;;;10.65;4.03;;;;;;;19.27;57.11;101177.41;4999333;28;20057;-90
2022/05/16 06:43:22;;;;;;;7.93;4.18;;;;;;;19.38;56.70;101173.34;4995990;28;20061;-91
2022/05/16 06:45:47;;;;;;;9.57;3.92;;;;;;;19.43;56.65;101180.56;4991830;28;20029;-90
2022/05/16 06:48:13;;;;;;;10.83;3.83;;;;;;;19.61;55.94;101174.16;4973991;28;20023;-90
2022/05/16 06:50:40;;;;;;;8.73;3.57;;;;;;;19.80;55.83;101175.84;4987459;28;20393;-89
2022/05/16 06:53:12;;;;;;;9.93;3.70;;;;;;;19.94;55.71;101173.84;4989324;28;20030;-90
2022/05/16 06:55:37;;;;;;;7.00;3.10;;;;;;;20.17;54.62;101184.69;4970188;28;20037;-89
2022/05/16 06:58:02;;;;;;;8.13;3.77;;;;;;;20.49;54.34;101179.16;4992232;28;20086;-89
2022/05/16 07:00:28;;;;;;;7.88;3.15;;;;;;;20.89;53.83;101181.81;5001518;22;20046;-89
2022/05/16 07:02:53;;;;;;;12.10;3.50;;;;;;;21.20;53.04;101191.72;4996499;28;20030;-88
2022/05/16 07:05:19;;;;;;;7.47;2.87;;;;;;;21.47;51.09;101190.56;4990592;28;20030;-90
2022/05/16 07:07:44;;;;;;;6.37;3.33;;;;;;;21.67;51.33;101182.88;4990305;28;20362;-90
2022/05/16 07:10:10;;;;;;;14.95;3.17;;;;;;;21.56;50.93;101178.88;4990911;28;20105;-91
2022/05/16 07:12:35;;;;;;;12.43;3.20;;;;;;;21.63;51.79;101188.19;4989441;28;20034;-88
2022/05/16 07:15:01;;;;;;;8.77;2.92;;;;;;;21.73;51.22;101187.03;4986614;28;20030;-88
2022/05/16 07:17:27;;;;;;;9.13;2.83;;;;;;;21.69;51.39;101196.97;4990448;28;20477;-89
2022/05/16 07:19:59;;;;;;;15.15;3.42;;;;;;;21.83;51.68;101195.97;4990356;28;20057;-88
2022/05/16 07:22:24;;;;;;;10.25;3.03;;;;;;;22.07;51.25;101201.66;4988345;28;20034;-88
2022/05/16 07:24:53;;;;;;;21.83;3.30;;;;;;;22.08;50.22;101181.44;4988753;28;20029;-88
2022/05/16 07:30:05;;;;;;;8.98;2.83;;;;;;;22.46;50.46;101203.59;4975847;28;20093;-88
2022/05/16 07:32:41;;;;;;;10.90;2.90;;;;;;;22.44;50.14;101205.88;4979375;28;20082;-90
2022/05/16 07:35:14;;;;;;;10.57;2.80;;;;;;;22.45;49.81;101204.72;5001770;28;20508;-89
2022/05/16 07:37:39;;;;;;;8.43;2.80;;;;;;;22.70;50.00;101208.44;4989538;28;20800;-89
2022/05/16 07:40:08;;;;;;;9.55;2.88;;;;;;;22.80;49.25;101201.78;4990725;28;20026;-89
2022/05/16 07:42:34;;;;;;;8.63;2.45;;;;;;;23.06;49.52;101201.59;4989792;28;20033;-91
2022/05/16 07:45:00;;;;;;;10.50;2.80;;;;;;;22.94;49.54;101199.59;4991616;28;20026;-90
2022/05/16 07:47:26;;;;;;;6.38;2.67;;;;;;;23.07;49.54;101210.59;4992486;28;20069;-88
2022/05/16 07:49:51;;;;;;;8.17;2.73;;;;;;;23.16;49.45;101216.00;4989411;28;20054;-88
2022/05/16 07:52:17;;;;;;;8.40;2.60;;;;;;;23.18;49.88;101211.78;4991454;28;20065;-88
2022/05/16 07:54:42;;;;;;;9.88;2.50;;;;;;;23.34;49.54;101212.00;4994007;28;20034;-88
2022/05/16 07:57:07;;;;;;;6.67;2.87;;;;;;;23.60;49.19;101221.88;4989019;28;20022;-88
2022/05/16 07:59:33;;;;;;;7.33;2.77;;;;;;;23.58;49.15;101211.28;4986858;28;20030;-88
2022/05/16 08:01:58;;;;;;;7.27;2.63;;;;;;;23.83;48.74;101229.69;4989106;28;20486;-88
2022/05/16 08:04:23;;;;;;;8.00;2.87;;;;;;;23.70;48.98;101207.78;4989980;28;20041;-89
2022/05/16 08:06:50;;;;;;;9.10;2.50;;;;;;;23.62;48.92;101211.38;4994528;28;20030;-88
2022/05/16 08:12:00;;;;;;;6.80;2.50;;;;;;;23.66;48.10;101223.25;4992694;28;20457;-88
2022/05/16 08:14:27;;;;;;;5.87;2.20;;;;;;;23.49;48.39;101224.22;4992063;28;20050;-87
2022/05/16 08:16:52;;;;;;;7.03;2.33;;;;;;;23.25;49.19;101224.94;5007849;28;20026;-88
2022/05/16 08:19:19;;;;;;;6.73;2.33;;;;;;;23.28;49.96;101229.72;4995553;28;20401;-88
2022/05/16 08:21:45;;;;;;;7.05;2.78;;;;;;;23.31;49.72;101223.59;5000022;28;20014;-88
2022/05/16 08:24:11;;;;;;;7.18;2.50;;;;;;;23.52;49.67;101236.44;4991375;28;20019;-88
2022/05/16 08:26:37;;;;;;;5.85;2.25;;;;;;;23.75;48.85;101239.56;5007300;28;20076;-89
2022/05/16 08:29:03;;;;;;;6.28;2.50;;;;;;;23.81;49.01;101226.47;4992952;28;20038;-87
2022/05/16 08:31:29;;;;;;;6.97;2.60;;;;;;;23.88;48.70;101233.00;4992552;28;20034;-88
2022/05/16 08:33:59;;;;;;;11.77;2.43;;;;;;;24.00;48.53;101234.97;5007563;28;20018;-88
2022/05/16 08:42:02;;;;;;;5.75;2.67;;;;;;;24.67;48.02;101233.97;4993585;28;20045;-91
2022/05/16 08:44:40;;;;;;;8.25;2.47;;;;;;;24.94;48.33;101234.38;4993328;28;20089;-90
2022/05/16 08:49:42;;;;;;;8.80;2.50;;;;;;;25.12;46.38;101239.56;5010788;28;20096;-93
2022/05/16 08:52:16;;;;;;;14.15;2.40;;;;;;;25.17;46.38;101229.19;5022355;28;20156;-94
2022/05/16 08:54:49;;;;;;;6.38;2.20;;;;;;;25.30;46.58;101240.09;5001995;28;20033;-95
2022/05/16 08:57:23;;;;;;;9.75;2.53;;;;;;;25.51;45.89;101237.97;5015266;28;20033;-93
2022/05/16 08:59:56;;;;;;;6.43;2.83;;;;;;;25.49;45.33;101237.53;5018845;28;20068;-96
2022/05/16 09:02:24;;;;;;;7.43;2.70;;;;;;;25.73;45.35;101241.31;5012915;28;20316;-95
2022/05/16 09:05:06;;;;;;;8.07;2.67;;;;;;;25.82;44.28;101239.19;5013619;28;20034;-90
2022/05/16 09:07:51;;;;;;;9.45;2.20;;;;;;;26.09;45.20;101233.97;5013470;28;20026;-91
2022/05/16 09:10:19;;;;;;;8.85;2.55;;;;;;;26.09;43.99;101227.66;4994604;28;20105;-91
2022/05/16 09:12:54;;;;;;;5.15;2.22;;;;;;;26.08;43.76;101237.88;5012338;28;20453;-91
2022/05/16 09:15:33;;;;;;;10.27;2.47;;;;;;;25.95;43.31;101231.66;5014046;28;20022;-87
2022/05/16 09:18:14;;;;;;;8.35;2.72;;;;;;;26.27;43.27;101236.38;5014744;28;20037;-89
2022/05/16 09:21:06;;;;;;;9.38;2.33;;;;;;;26.54;42.91;101233.84;5014245;28;20051;-88
2022/05/16 09:23:40;;;;;;;8.25;2.35;;;;;;;26.74;42.51;101238.22;5018168;28;20112;-89
2022/05/16 09:26:15;;;;;;;8.27;2.83;;;;;;;26.88;42.29;101229.53;5018538;28;20037;-88
2022/05/16 09:29:10;;;;;;;6.27;2.40;;;;;;;27.11;42.09;101233.50;5011373;28;21044;-88
2022/05/16 09:31:42;;;;;;;12.93;2.28;;;;;;;27.33;41.47;101238.28;5008474;28;20096;-88
2022/05/16 09:34:09;;;;;;;4.50;2.45;;;;;;;27.38;40.59;101230.91;5010476;28;20493;-89
2022/05/16 09:36:38;;;;;;;9.40;3.30;;;;;;;27.41;42.15;101238.41;5011973;28;20042;-88
2022/05/16 09:39:05;;;;;;;7.68;2.70;;;;;;;27.64;40.58;101238.50;5010778;28;20065;-88
2022/05/16 09:41:36;;;;;;;7.95;2.28;;;;;;;27.83;40.92;101243.13;5005976;28;20064;-91
2022/05/16 09:44:22;;;;;;;6.13;2.58;;;;;;;27.93;39.79;101244.50;5007761;28;20204;-91
2022/05/16 09:46:50;;;;;;;8.15;2.25;;;;;;;27.86;40.58;101245.16;4999304;28;20036;-92
2022/05/16 09:49:22;;;;;;;9.65;2.78;;;;;;;27.84;41.08;101253.00;5010276;28;20054;-87
2022/05/16 09:51:50;;;;;;;12.00;2.60;;;;;;;28.01;40.17;101256.41;5011149;28;20044;-86
2022/05/16 09:54:30;;;;;;;8.17;3.00;;;;;;;28.00;39.67;101260.31;5011685;28;20834;-87
2022/05/16 09:57:08;;;;;;;6.97;2.85;;;;;;;28.04;39.98;101256.47;5009688;28;20093;-89
2022/05/16 09:59:39;;;;;;;6.28;2.55;;;;;;;28.30;40.70;101265.97;5010651;28;20034;-90
2022/05/16 10:02:18;;;;;;;5.60;2.50;;;;;;;28.84;38.84;101271.50;5014428;28;20026;-83
2022/05/16 10:04:47;;;;;;;5.97;2.78;;;;;;;29.64;38.27;101275.22;5011325;28;20022;-83
2022/05/16 10:07:13;;;;;;;7.18;2.67;;;;;;;30.17;36.41;101285.19;5009411;28;20061;-83
2022/05/16 10:09:46;;;;;;;7.30;3.00;;;;;;;30.36;35.69;101296.00;5012548;28;20061;-88
2022/05/16 10:12:16;;;;;;;6.18;2.38;;;;;;;30.54;35.57;101291.78;5010408;28;20029;-90
2022/05/16 10:14:42;;;;;;;9.15;2.85;;;;;;;30.55;35.00;101298.91;5013991;28;20029;-88
2022/05/16 10:17:10;;;;;;;5.20;2.75;;;;;;;30.63;34.83;101295.03;5009648;28;20397;-90
2022/05/16 10:19:39;;;;;;;8.45;2.92;;;;;;;30.68;35.22;101297.44;5009829;28;20355;-90
2022/05/16 10:22:25;;;;;;;5.72;2.92;;;;;;;30.48;35.90;101296.88;5011185;28;20080;-84
2022/05/16 10:24:54;;;;;;;8.90;3.65;;;;;;;29.87;36.13;101305.44;5011124;28;20030;-83
2022/05/16 10:27:29;;;;;;;8.65;3.33;;;;;;;29.21;37.44;101306.66;5011047;28;20101;-84
2022/05/16 10:29:57;;;;;;;8.47;2.97;;;;;;;28.48;38.54;101307.59;5008355;28;20100;-88
2022/05/16 10:35:22;;;;;;;13.23;3.58;;;;;;;27.11;47.53;101343.50;5014531;28;20060;-88
2022/05/16 10:37:51;;;;;;;13.18;3.85;;;;;;;25.96;53.70;101358.72;5011697;28;20025;-87
2022/05/16 10:40:40;;;;;;;17.05;4.10;;;;;;;24.58;62.70;101365.56;5009349;28;20037;-84
2022/05/16 10:43:58;;;;;;;26.00;5.10;;;;;;;22.93;71.91;101381.03;5640376;22;20334;-87
2022/05/16 10:46:30;;;;;;;18.95;4.50;;;;;;;22.32;80.17;101375.75;5041877;28;20045;-88
2022/05/16 10:49:01;;;;;;;18.33;5.15;;;;;;;21.96;81.62;101382.41;5056579;28;20021;-89
2022/05/16 10:51:38;;;;;;;11.07;4.50;;;;;;;21.81;85.32;101384.50;5045434;28;20026;-89
2022/05/16 10:54:07;;;;;;;13.05;5.28;;;;;;;21.96;87.97;101385.13;5063702;28;20028;-90
2022/05/16 10:56:41;;;;;;;12.10;4.80;;;;;;;22.68;89.53;101380.03;5061161;28;20029;-90
2022/05/16 10:59:48;;;;;;;11.13;5.60;;;;;;;23.11;83.15;101378.22;5058621;28;20299;-89
2022/05/16 11:02:34;;;;;;;17.73;5.63;;;;;;;23.35;83.11;101385.84;5061249;28;20029;-90
2022/05/16 11:05:06;;;;;;;12.45;5.45;;;;;;;23.57;80.48;101392.09;5049195;28;20035;-91
2022/05/16 11:07:52;;;;;;;8.90;5.18;;;;;;;23.67;76.88;101391.72;5039556;28;20025;-92
2022/05/16 11:10:28;;;;;;;9.73;5.00;;;;;;;24.09;74.58;101395.59;5044831;28;20107;-91
2022/05/16 11:13:12;;;;;;;16.67;5.30;;;;;;;24.57;72.05;101391.34;5053641;28;20029;-91
2022/05/16 11:15:56;;;;;;;11.27;4.97;;;;;;;25.23;69.94;101397.00;5053646;28;20621;-91
2022/05/16 11:18:33;;;;;;;12.82;4.88;;;;;;;25.65;68.31;101393.97;5054067;28;20033;-91
2022/05/16 11:21:17;;;;;;;15.80;5.78;;;;;;;25.52;75.37;101395.94;5054289;28;20039;-91
2022/05/16 11:24:14;;;;;;;7.67;4.77;;;;;;;24.92;76.33;101380.00;5054695;28;20059;-91
2022/05/16 11:26:54;;;;;;;11.40;5.47;;;;;;;24.40;72.97;101380.59;5042153;23;20301;-91
2022/05/16 11:29:47;;;;;;;9.00;4.82;;;;;;;24.78;70.39;101385.81;5051350;28;20585;-92
2022/05/16 11:32:34;;;;;;;11.98;5.10;;;;;;;24.95;66.58;101395.75;5046293;28;20044;-90
2022/05/16 11:35:12;;;;;;;14.85;5.35;;;;;;;24.72;65.69;101408.28;5054366;28;20036;-91
2022/05/16 11:38:22;;;;;;;10.63;5.13;;;;;;;24.52;66.45;101405.25;5051870;28;20460;-92
2022/05/16 11:41:23;;;;;;;19.27;6.88;;;;;;;24.00;72.50;101412.09;5042141;28;20037;-90
2022/05/16 11:43:51;;;;;;;13.80;5.80;;;;;;;22.91;78.29;101412.56;5018916;28;20128;-89
2022/05/16 11:46:29;;;;;;;14.55;6.55;;;;;;;22.53;85.03;101414.16;5034813;28;20035;-88
2022/05/16 11:49:16;;;;;;;11.65;6.90;;;;;;;22.30;78.26;101417.03;5034986;28;20028;-89
2022/05/16 11:51:45;;;;;;;9.67;6.60;;;;;;;22.43;81.32;101417.19;5040846;28;20690;-89
2022/05/16 11:54:16;;;;;;;16.37;7.03;;;;;;;22.61;79.75;101415.25;5054442;28;20279;-89
2022/05/16 12:02:35;;;;;;;11.45;6.43;;;;;;;21.97;77.74;101424.94;5055024;28;20503;-90
2022/05/16 12:05:00;;;;;;;11.05;6.93;;;;;;;22.11;78.62;101424.78;5055122;28;20032;-90
2022/05/16 12:07:56;;;;;;;14.23;6.10;;;;;;;22.10;76.19;101426.69;5054509;28;20032;-90
2022/05/16 12:10:25;;;;;;;10.60;6.15;;;;;;;22.33;76.13;101432.78;5036896;28;20040;-91